createdAt,value
2023-02-19T00:02:41.824Z,81.01
2023-02-19T00:12:42.354Z,78.58
2023-02-19T00:22:42.208Z,78.58
2023-02-19T00:32:42.606Z,78.92
2023-02-19T00:42:42.647Z,78.61
2023-02-19T00:52:42.977Z,79.47
2023-02-19T01:02:43.013Z,79.51
2023-02-19T01:12:43.449Z,80.13
2023-02-19T01:22:43.528Z,80.58
2023-02-19T01:32:43.715Z,79.86
2023-02-19T01:42:43.761Z,79.96
2023-02-19T01:52:44.202Z,80.93
2023-02-19T02:02:44.253Z,79.38
2023-02-19T02:12:45.286Z,79.27
2023-02-19T02:22:44.822Z,79.72
2023-02-19T02:32:46.869Z,81.21
2023-02-19T02:42:45.127Z,81.17
2023-02-19T02:52:47.205Z,80.44
2023-02-19T03:02:45.450Z,81.07
2023-02-19T03:12:45.871Z,82.75
2023-02-19T03:22:45.912Z,79.86
2023-02-19T03:32:46.364Z,78.83
2023-02-19T03:42:46.469Z,83.07
2023-02-19T03:52:46.727Z,84.05
2023-02-19T04:02:46.823Z,82.97
2023-02-19T04:12:46.983Z,79.14
2023-02-19T04:22:47.020Z,80.18
2023-02-19T04:32:47.323Z,81.66
2023-02-19T04:42:47.353Z,81.21
2023-02-19T04:52:47.656Z,79.93
2023-02-19T05:02:47.696Z,80.04
2023-02-19T05:12:48.093Z,81.96
2023-02-19T05:22:48.261Z,83.86
2023-02-19T05:32:48.496Z,86.07
2023-02-19T05:42:48.518Z,87.10
2023-02-19T05:52:48.826Z,87.68
2023-02-19T06:02:48.903Z,87.48
2023-02-19T06:12:49.203Z,88.82
2023-02-19T06:22:49.282Z,86.69
2023-02-19T06:32:49.423Z,86.73
2023-02-19T06:42:49.466Z,88.90
2023-02-19T06:52:49.845Z,89.69
2023-02-19T07:02:49.911Z,85.78
2023-02-19T07:12:50.226Z,88.41
2023-02-19T07:22:50.262Z,89.13
2023-02-19T07:32:50.560Z,88.22
2023-02-19T07:42:50.617Z,88.59
2023-02-19T07:52:50.920Z,87.35
2023-02-19T08:02:50.960Z,86.35
2023-02-19T08:12:51.195Z,85.67
2023-02-19T08:22:51.469Z,84.67
2023-02-19T08:32:51.704Z,84.43
2023-02-19T08:42:51.730Z,84.14
2023-02-19T08:52:51.965Z,84.62
2023-02-19T09:02:52.180Z,84.64
2023-02-19T09:12:52.440Z,85.16
2023-02-19T09:22:52.671Z,84.77
2023-02-19T09:32:53.020Z,84.08
2023-02-19T09:42:53.058Z,83.22
2023-02-19T09:52:53.391Z,79.89
2023-02-19T10:02:53.623Z,77.01
2023-02-19T10:12:53.705Z,75.55
2023-02-19T10:22:53.765Z,72.69
2023-02-19T10:32:54.033Z,69.36
2023-02-19T10:42:54.306Z,65.94
2023-02-19T10:52:54.297Z,63.75
2023-02-19T11:02:54.346Z,61.66
2023-02-19T11:12:56.617Z,60.86
2023-02-19T11:22:54.827Z,60.19
2023-02-19T11:32:55.146Z,59.68
2023-02-19T11:42:55.363Z,57.37
2023-02-19T11:52:55.415Z,56.98
2023-02-19T12:02:55.555Z,56.02
2023-02-19T12:12:55.887Z,55.04
2023-02-19T12:22:55.779Z,53.60
2023-02-19T12:32:56.044Z,53.70
2023-02-19T12:42:56.089Z,53.27
2023-02-19T12:52:57.441Z,54.83
2023-02-19T13:02:56.482Z,57.34
2023-02-19T13:12:56.584Z,60.84
2023-02-19T13:22:57.055Z,62.48
2023-02-19T13:32:56.983Z,65.00
2023-02-19T13:42:57.110Z,66.18
2023-02-19T13:52:57.238Z,66.08
2023-02-19T14:02:57.473Z,66.31
2023-02-19T14:12:59.715Z,67.46
2023-02-19T14:22:57.634Z,68.04
2023-02-19T14:33:10.288Z,65.39
2023-02-19T14:43:01.084Z,65.94
2023-02-19T14:52:58.406Z,65.43
2023-02-19T15:02:58.287Z,65.77
2023-02-19T15:12:58.819Z,64.64
2023-02-19T15:22:59.920Z,65.97
2023-02-19T15:32:59.995Z,67.08
2023-02-19T15:42:59.315Z,67.62
2023-02-19T15:52:59.777Z,68.23
2023-02-19T16:02:59.376Z,67.55
2023-02-19T16:13:00.646Z,68.02
2023-02-19T16:22:59.822Z,67.21
2023-02-19T16:33:00.005Z,66.80
2023-02-19T16:43:00.150Z,66.72
2023-02-19T16:53:00.423Z,66.21
2023-02-19T17:03:00.449Z,66.04
2023-02-19T17:13:00.690Z,66.99
2023-02-19T17:23:00.626Z,66.78
2023-02-19T17:33:01.149Z,67.40
2023-02-19T17:43:01.392Z,67.10
2023-02-19T17:53:02.468Z,64.33
2023-02-19T18:03:01.651Z,63.00
2023-02-19T18:13:01.627Z,61.57
2023-02-19T18:23:01.965Z,61.29
2023-02-19T18:33:01.902Z,63.26
2023-02-19T18:43:02.934Z,63.03
2023-02-19T18:53:02.424Z,62.93
2023-02-19T19:03:02.645Z,63.44
2023-02-19T19:13:02.896Z,63.65
2023-02-19T19:23:03.062Z,63.47
2023-02-19T19:33:03.526Z,62.76
2023-02-19T19:43:03.519Z,62.65
2023-02-19T19:53:03.752Z,63.57
2023-02-19T20:03:03.985Z,62.85
2023-02-19T20:13:04.237Z,63.17
2023-02-19T20:23:04.456Z,64.32
2023-02-19T20:33:07.975Z,62.17
2023-02-19T20:43:04.741Z,62.85
2023-02-19T20:53:05.037Z,64.94
2023-02-19T21:03:04.946Z,64.97
2023-02-19T21:13:05.927Z,64.32
2023-02-19T21:23:05.217Z,64.53
2023-02-19T21:33:05.218Z,63.50
2023-02-19T21:43:06.287Z,65.55
2023-02-19T21:53:05.807Z,63.53
2023-02-19T22:03:05.546Z,65.58
2023-02-19T22:13:05.747Z,66.50
2023-02-19T22:23:06.018Z,65.37
2023-02-19T22:33:07.965Z,66.74
2023-02-19T22:43:06.002Z,63.94
2023-02-19T22:53:06.493Z,62.78
2023-02-19T23:03:06.333Z,64.01
2023-02-19T23:13:06.765Z,63.53
2023-02-19T23:23:06.794Z,63.22
2023-02-19T23:33:07.137Z,62.30
2023-02-19T23:43:07.157Z,63.56
2023-02-19T23:53:08.530Z,64.38
